Terminal Aerodrome Forecast
Issued by NWS Nashville, TN

Home | Current Version | Previous Version | Text Only | Print | Product List | Glossary On
Versions: 1 2 3 4 5 6 7 8 9 10 11 12 13 14 15 16 17 18 19 20 21 22 23 24 25
756
FTUS44 KOHX 241732
TAFBNA
TAF
KBNA 241732Z 2418/2518 27007KT P6SM VCSH BKN015 OVC030
     FM242000 33010G17KT P6SM VCSH SCT030 BKN050
      TEMPO 2420/2423 4SM -SHRA BKN030 BKN050
     FM250100 33006KT 6SM BR OVC012=

USA.gov is the U.S. government's official web portal to all federal, state and local government web resources and services.